KHVE

Hanksville Airport

Hanksville, Utah, USA
METAR KHVE 172015Z AUTO 07013G17KT 10SM SCT028 BKN044 OVC060 11/06 A3032 RMK AO2
Observed Flight Rules
Oct-17 @ 20:15 UTC (14 minutes ago) Visual Flight Rules
Wind Visibility Clouds
70° at 13 knots
 Gusting to 17 knots
10 miles
  • Scattered at 2,800' AGL
  • Broken at 4,400' AGL
  • Overcast at 6,000' AGL
Temperatures Readings
Current 11°C / 52°F
Dewpoint 6°C / 43°F
Humidity 72%
Altimeter 30.32" Hg
Pressure 1027 hPa
Elevation 1350
METAR KHVE 172015Z AUTO 07013G17KT 10SM SCT028 BKN044 OVC060 11/06 A3032 RMK AO2
Observed Flight Rules
Oct-17 @ 20:15 UTC
(14 minutes ago)
VFR
Wind Visibility
70° at 13 knots
 Gusting to 17 knots
10 miles
Clouds
  • Scattered at 2,800' AGL
  • Broken at 4,400' AGL
  • Overcast at 6,000' AGL
Temperature Dewpoint
11°C / 52°F 6°C / 43°F
Humidity Altimeter Pressure
72% 30.32" Hg 1027 hPa